sensor_id;sensor_type;location;lat;lon;timestamp;P1;durP1;ratioP1;P2;durP2;ratioP2
59476;SDS011;73078;49.762;6.594;2024-01-27T00:00:25;7.28;;;3.85;;
59476;SDS011;73078;49.762;6.594;2024-01-27T00:02:51;9.88;;;3.90;;
59476;SDS011;73078;49.762;6.594;2024-01-27T00:05:17;6.55;;;4.03;;
59476;SDS011;73078;49.762;6.594;2024-01-27T00:07:45;8.40;;;3.90;;
59476;SDS011;73078;49.762;6.594;2024-01-27T00:10:11;7.30;;;3.70;;
59476;SDS011;73078;49.762;6.594;2024-01-27T00:12:37;7.75;;;3.70;;
59476;SDS011;73078;49.762;6.594;2024-01-27T00:15:03;18.77;;;3.55;;
59476;SDS011;73078;49.762;6.594;2024-01-27T00:17:29;6.60;;;4.20;;
59476;SDS011;73078;49.762;6.594;2024-01-27T00:19:55;7.05;;;3.85;;
59476;SDS011;73078;49.762;6.594;2024-01-27T00:22:21;7.22;;;3.33;;
59476;SDS011;73078;49.762;6.594;2024-01-27T00:24:47;7.13;;;4.00;;
59476;SDS011;73078;49.762;6.594;2024-01-27T00:27:13;11.05;;;4.07;;
59476;SDS011;73078;49.762;6.594;2024-01-27T00:29:39;6.10;;;3.53;;
59476;SDS011;73078;49.762;6.594;2024-01-27T00:32:05;10.60;;;3.83;;
59476;SDS011;73078;49.762;6.594;2024-01-27T00:34:31;9.93;;;3.70;;
59476;SDS011;73078;49.762;6.594;2024-01-27T00:36:57;7.05;;;3.70;;
59476;SDS011;73078;49.762;6.594;2024-01-27T00:39:23;7.35;;;4.05;;
59476;SDS011;73078;49.762;6.594;2024-01-27T00:41:49;10.38;;;4.97;;
59476;SDS011;73078;49.762;6.594;2024-01-27T00:44:16;8.55;;;4.13;;
59476;SDS011;73078;49.762;6.594;2024-01-27T00:46:42;9.43;;;4.25;;
59476;SDS011;73078;49.762;6.594;2024-01-27T00:49:08;7.82;;;3.83;;
59476;SDS011;73078;49.762;6.594;2024-01-27T00:51:34;11.30;;;4.20;;
59476;SDS011;73078;49.762;6.594;2024-01-27T00:54:00;9.90;;;3.70;;
59476;SDS011;73078;49.762;6.594;2024-01-27T00:56:26;8.95;;;3.92;;
59476;SDS011;73078;49.762;6.594;2024-01-27T00:58:52;9.43;;;3.90;;
59476;SDS011;73078;49.762;6.594;2024-01-27T01:01:18;7.53;;;3.63;;
59476;SDS011;73078;49.762;6.594;2024-01-27T01:03:44;5.88;;;3.30;;
59476;SDS011;73078;49.762;6.594;2024-01-27T01:06:10;5.50;;;3.60;;
59476;SDS011;73078;49.762;6.594;2024-01-27T01:08:36;8.18;;;3.13;;
59476;SDS011;73078;49.762;6.594;2024-01-27T01:11:02;9.60;;;3.90;;
59476;SDS011;73078;49.762;6.594;2024-01-27T01:13:29;8.45;;;4.05;;
59476;SDS011;73078;49.762;6.594;2024-01-27T01:15:55;8.13;;;4.28;;
59476;SDS011;73078;49.762;6.594;2024-01-27T01:18:21;9.38;;;3.88;;
59476;SDS011;73078;49.762;6.594;2024-01-27T01:20:47;10.20;;;4.22;;
59476;SDS011;73078;49.762;6.594;2024-01-27T01:23:13;8.43;;;4.38;;
59476;SDS011;73078;49.762;6.594;2024-01-27T01:25:39;9.80;;;4.28;;
59476;SDS011;73078;49.762;6.594;2024-01-27T01:28:05;9.77;;;4.13;;
59476;SDS011;73078;49.762;6.594;2024-01-27T01:30:31;7.30;;;4.00;;
59476;SDS011;73078;49.762;6.594;2024-01-27T01:32:56;10.25;;;4.57;;
59476;SDS011;73078;49.762;6.594;2024-01-27T01:35:22;11.05;;;4.30;;
59476;SDS011;73078;49.762;6.594;2024-01-27T01:37:49;7.88;;;3.97;;
59476;SDS011;73078;49.762;6.594;2024-01-27T01:40:15;7.28;;;3.70;;
59476;SDS011;73078;49.762;6.594;2024-01-27T01:42:41;7.72;;;3.75;;
59476;SDS011;73078;49.762;6.594;2024-01-27T01:45:08;10.10;;;4.00;;
59476;SDS011;73078;49.762;6.594;2024-01-27T01:47:35;11.80;;;4.15;;
59476;SDS011;73078;49.762;6.594;2024-01-27T01:50:01;6.63;;;4.13;;
59476;SDS011;73078;49.762;6.594;2024-01-27T01:52:27;10.15;;;3.47;;
59476;SDS011;73078;49.762;6.594;2024-01-27T01:54:53;7.13;;;3.63;;
59476;SDS011;73078;49.762;6.594;2024-01-27T01:57:19;6.88;;;3.38;;
59476;SDS011;73078;49.762;6.594;2024-01-27T01:59:45;9.38;;;4.10;;
59476;SDS011;73078;49.762;6.594;2024-01-27T02:02:12;7.20;;;3.83;;
59476;SDS011;73078;49.762;6.594;2024-01-27T02:07:07;10.95;;;3.97;;
59476;SDS011;73078;49.762;6.594;2024-01-27T02:09:33;8.65;;;3.38;;
59476;SDS011;73078;49.762;6.594;2024-01-27T02:11:59;7.35;;;4.22;;
59476;SDS011;73078;49.762;6.594;2024-01-27T02:14:25;7.15;;;3.70;;
59476;SDS011;73078;49.762;6.594;2024-01-27T02:16:52;7.97;;;3.55;;
59476;SDS011;73078;49.762;6.594;2024-01-27T02:19:18;6.30;;;3.28;;
59476;SDS011;73078;49.762;6.594;2024-01-27T02:21:44;8.02;;;3.78;;
59476;SDS011;73078;49.762;6.594;2024-01-27T02:24:10;6.80;;;3.58;;
59476;SDS011;73078;49.762;6.594;2024-01-27T02:26:36;6.80;;;3.60;;
59476;SDS011;73078;49.762;6.594;2024-01-27T02:29:02;12.10;;;3.85;;
59476;SDS011;73078;49.762;6.594;2024-01-27T02:31:28;13.23;;;3.92;;
59476;SDS011;73078;49.762;6.594;2024-01-27T02:33:54;5.93;;;3.70;;
59476;SDS011;73078;49.762;6.594;2024-01-27T02:36:20;8.77;;;4.55;;
59476;SDS011;73078;49.762;6.594;2024-01-27T02:38:46;7.90;;;3.55;;
59476;SDS011;73078;49.762;6.594;2024-01-27T02:41:12;8.95;;;4.40;;
59476;SDS011;73078;49.762;6.594;2024-01-27T02:43:39;7.55;;;3.63;;
59476;SDS011;73078;49.762;6.594;2024-01-27T02:46:09;7.15;;;3.40;;
59476;SDS011;73078;49.762;6.594;2024-01-27T02:48:35;5.57;;;3.25;;
59476;SDS011;73078;49.762;6.594;2024-01-27T02:51:01;8.32;;;3.92;;
59476;SDS011;73078;49.762;6.594;2024-01-27T02:53:28;7.85;;;3.33;;
59476;SDS011;73078;49.762;6.594;2024-01-27T02:55:54;12.70;;;3.95;;
59476;SDS011;73078;49.762;6.594;2024-01-27T02:58:20;8.65;;;3.40;;
59476;SDS011;73078;49.762;6.594;2024-01-27T03:00:47;10.15;;;3.65;;
59476;SDS011;73078;49.762;6.594;2024-01-27T03:03:13;9.60;;;3.95;;
59476;SDS011;73078;49.762;6.594;2024-01-27T03:05:40;7.90;;;3.78;;
59476;SDS011;73078;49.762;6.594;2024-01-27T03:08:06;8.30;;;4.00;;
59476;SDS011;73078;49.762;6.594;2024-01-27T03:10:32;9.30;;;3.88;;
59476;SDS011;73078;49.762;6.594;2024-01-27T03:12:58;8.57;;;3.60;;
59476;SDS011;73078;49.762;6.594;2024-01-27T03:15:24;9.45;;;4.32;;
59476;SDS011;73078;49.762;6.594;2024-01-27T03:17:50;5.95;;;3.97;;
59476;SDS011;73078;49.762;6.594;2024-01-27T03:20:16;11.02;;;4.50;;
59476;SDS011;73078;49.762;6.594;2024-01-27T03:22:42;11.07;;;3.70;;
59476;SDS011;73078;49.762;6.594;2024-01-27T03:25:08;8.73;;;3.75;;
59476;SDS011;73078;49.762;6.594;2024-01-27T03:27:34;7.82;;;4.07;;
59476;SDS011;73078;49.762;6.594;2024-01-27T03:30:00;8.93;;;3.40;;
59476;SDS011;73078;49.762;6.594;2024-01-27T03:32:27;9.00;;;3.30;;
59476;SDS011;73078;49.762;6.594;2024-01-27T03:34:53;12.57;;;3.85;;
59476;SDS011;73078;49.762;6.594;2024-01-27T03:37:21;10.52;;;4.28;;
59476;SDS011;73078;49.762;6.594;2024-01-27T03:39:47;13.18;;;4.40;;
59476;SDS011;73078;49.762;6.594;2024-01-27T03:42:13;6.70;;;4.10;;
59476;SDS011;73078;49.762;6.594;2024-01-27T03:44:39;10.65;;;4.03;;
59476;SDS011;73078;49.762;6.594;2024-01-27T03:47:05;9.85;;;4.38;;
59476;SDS011;73078;49.762;6.594;2024-01-27T03:49:31;8.38;;;4.63;;
59476;SDS011;73078;49.762;6.594;2024-01-27T03:51:57;9.65;;;4.60;;
59476;SDS011;73078;49.762;6.594;2024-01-27T03:54:23;11.25;;;5.07;;
59476;SDS011;73078;49.762;6.594;2024-01-27T03:56:49;12.68;;;5.13;;
59476;SDS011;73078;49.762;6.594;2024-01-27T03:59:15;6.95;;;4.55;;
59476;SDS011;73078;49.762;6.594;2024-01-27T04:01:40;9.27;;;4.47;;
59476;SDS011;73078;49.762;6.594;2024-01-27T04:04:07;9.68;;;4.43;;
59476;SDS011;73078;49.762;6.594;2024-01-27T04:06:39;12.48;;;4.45;;
59476;SDS011;73078;49.762;6.594;2024-01-27T04:09:06;10.07;;;4.43;;
59476;SDS011;73078;49.762;6.594;2024-01-27T04:11:35;17.55;;;4.80;;
59476;SDS011;73078;49.762;6.594;2024-01-27T04:14:01;12.15;;;4.28;;
59476;SDS011;73078;49.762;6.594;2024-01-27T04:16:28;7.78;;;4.10;;
59476;SDS011;73078;49.762;6.594;2024-01-27T04:18:54;7.40;;;3.72;;
59476;SDS011;73078;49.762;6.594;2024-01-27T04:21:20;11.23;;;3.60;;
59476;SDS011;73078;49.762;6.594;2024-01-27T04:23:46;12.00;;;3.75;;
59476;SDS011;73078;49.762;6.594;2024-01-27T04:26:12;8.40;;;3.67;;
59476;SDS011;73078;49.762;6.594;2024-01-27T04:28:38;10.43;;;4.63;;
59476;SDS011;73078;49.762;6.594;2024-01-27T04:31:04;6.13;;;3.97;;
59476;SDS011;73078;49.762;6.594;2024-01-27T04:33:31;5.65;;;3.53;;
59476;SDS011;73078;49.762;6.594;2024-01-27T04:35:57;6.40;;;3.38;;
59476;SDS011;73078;49.762;6.594;2024-01-27T04:38:23;7.22;;;3.72;;
59476;SDS011;73078;49.762;6.594;2024-01-27T04:40:50;13.18;;;4.35;;
59476;SDS011;73078;49.762;6.594;2024-01-27T04:43:17;10.95;;;3.80;;
59476;SDS011;73078;49.762;6.594;2024-01-27T04:45:45;7.15;;;3.47;;
59476;SDS011;73078;49.762;6.594;2024-01-27T04:48:11;9.40;;;4.00;;
59476;SDS011;73078;49.762;6.594;2024-01-27T04:50:37;9.38;;;4.47;;
59476;SDS011;73078;49.762;6.594;2024-01-27T04:53:03;9.73;;;4.53;;
59476;SDS011;73078;49.762;6.594;2024-01-27T04:55:29;5.95;;;3.58;;
59476;SDS011;73078;49.762;6.594;2024-01-27T04:57:55;10.02;;;4.10;;
59476;SDS011;73078;49.762;6.594;2024-01-27T05:00:23;10.20;;;4.10;;
59476;SDS011;73078;49.762;6.594;2024-01-27T05:02:51;6.13;;;3.67;;
59476;SDS011;73078;49.762;6.594;2024-01-27T05:05:17;11.70;;;4.38;;
59476;SDS011;73078;49.762;6.594;2024-01-27T05:07:43;8.77;;;3.88;;
59476;SDS011;73078;49.762;6.594;2024-01-27T05:10:12;14.23;;;4.50;;
59476;SDS011;73078;49.762;6.594;2024-01-27T05:12:38;7.43;;;3.95;;
59476;SDS011;73078;49.762;6.594;2024-01-27T05:15:04;7.40;;;4.22;;
59476;SDS011;73078;49.762;6.594;2024-01-27T05:17:30;10.85;;;4.50;;
59476;SDS011;73078;49.762;6.594;2024-01-27T05:19:57;8.82;;;3.70;;
59476;SDS011;73078;49.762;6.594;2024-01-27T05:22:23;6.35;;;3.28;;
59476;SDS011;73078;49.762;6.594;2024-01-27T05:24:49;9.23;;;3.70;;
59476;SDS011;73078;49.762;6.594;2024-01-27T05:27:15;8.50;;;4.00;;
59476;SDS011;73078;49.762;6.594;2024-01-27T05:29:41;4.68;;;3.03;;
59476;SDS011;73078;49.762;6.594;2024-01-27T05:32:07;7.57;;;3.25;;
59476;SDS011;73078;49.762;6.594;2024-01-27T05:34:33;8.55;;;3.72;;
59476;SDS011;73078;49.762;6.594;2024-01-27T05:36:59;5.13;;;3.22;;
59476;SDS011;73078;49.762;6.594;2024-01-27T05:39:25;10.68;;;3.75;;
59476;SDS011;73078;49.762;6.594;2024-01-27T05:41:50;9.77;;;3.83;;
59476;SDS011;73078;49.762;6.594;2024-01-27T05:44:16;10.15;;;3.58;;
59476;SDS011;73078;49.762;6.594;2024-01-27T05:46:42;7.63;;;4.13;;
59476;SDS011;73078;49.762;6.594;2024-01-27T05:49:08;5.80;;;3.53;;
59476;SDS011;73078;49.762;6.594;2024-01-27T05:51:34;8.00;;;3.50;;
59476;SDS011;73078;49.762;6.594;2024-01-27T05:54:00;9.65;;;3.90;;
59476;SDS011;73078;49.762;6.594;2024-01-27T05:56:27;12.48;;;3.80;;
59476;SDS011;73078;49.762;6.594;2024-01-27T05:58:53;10.38;;;3.60;;
59476;SDS011;73078;49.762;6.594;2024-01-27T06:01:19;8.95;;;3.60;;
59476;SDS011;73078;49.762;6.594;2024-01-27T06:03:45;8.02;;;3.42;;
59476;SDS011;73078;49.762;6.594;2024-01-27T06:06:11;6.65;;;3.10;;
59476;SDS011;73078;49.762;6.594;2024-01-27T06:08:37;10.05;;;3.70;;
59476;SDS011;73078;49.762;6.594;2024-01-27T06:11:03;5.65;;;3.17;;
59476;SDS011;73078;49.762;6.594;2024-01-27T06:13:29;13.57;;;3.88;;
59476;SDS011;73078;49.762;6.594;2024-01-27T06:15:55;12.20;;;3.83;;
59476;SDS011;73078;49.762;6.594;2024-01-27T06:18:21;9.00;;;3.88;;
59476;SDS011;73078;49.762;6.594;2024-01-27T06:20:49;11.75;;;3.38;;
59476;SDS011;73078;49.762;6.594;2024-01-27T06:23:15;7.78;;;3.50;;
59476;SDS011;73078;49.762;6.594;2024-01-27T06:25:41;8.20;;;3.70;;
59476;SDS011;73078;49.762;6.594;2024-01-27T06:28:07;5.47;;;3.03;;
59476;SDS011;73078;49.762;6.594;2024-01-27T06:30:33;6.13;;;3.35;;
59476;SDS011;73078;49.762;6.594;2024-01-27T06:32:59;6.07;;;3.45;;
59476;SDS011;73078;49.762;6.594;2024-01-27T06:35:24;7.55;;;3.45;;
59476;SDS011;73078;49.762;6.594;2024-01-27T06:37:50;6.38;;;3.15;;
59476;SDS011;73078;49.762;6.594;2024-01-27T06:40:16;6.72;;;3.22;;
59476;SDS011;73078;49.762;6.594;2024-01-27T06:42:42;8.32;;;3.60;;
59476;SDS011;73078;49.762;6.594;2024-01-27T06:45:08;10.27;;;4.32;;
59476;SDS011;73078;49.762;6.594;2024-01-27T06:47:34;7.30;;;3.92;;
59476;SDS011;73078;49.762;6.594;2024-01-27T06:50:00;11.68;;;4.30;;
59476;SDS011;73078;49.762;6.594;2024-01-27T06:52:26;12.50;;;4.50;;
59476;SDS011;73078;49.762;6.594;2024-01-27T06:54:52;7.68;;;4.68;;
59476;SDS011;73078;49.762;6.594;2024-01-27T06:57:22;11.73;;;4.88;;
59476;SDS011;73078;49.762;6.594;2024-01-27T06:59:48;12.10;;;4.60;;
59476;SDS011;73078;49.762;6.594;2024-01-27T07:02:17;8.63;;;4.93;;
59476;SDS011;73078;49.762;6.594;2024-01-27T07:04:43;8.48;;;4.13;;
59476;SDS011;73078;49.762;6.594;2024-01-27T07:07:09;9.68;;;5.10;;
59476;SDS011;73078;49.762;6.594;2024-01-27T07:09:35;9.88;;;4.68;;
59476;SDS011;73078;49.762;6.594;2024-01-27T07:12:01;10.32;;;5.30;;
59476;SDS011;73078;49.762;6.594;2024-01-27T07:14:27;7.60;;;4.35;;
59476;SDS011;73078;49.762;6.594;2024-01-27T07:16:53;10.35;;;5.88;;
59476;SDS011;73078;49.762;6.594;2024-01-27T07:19:19;10.32;;;5.90;;
59476;SDS011;73078;49.762;6.594;2024-01-27T07:21:45;12.57;;;5.97;;
59476;SDS011;73078;49.762;6.594;2024-01-27T07:24:11;12.10;;;5.72;;
59476;SDS011;73078;49.762;6.594;2024-01-27T07:26:37;15.85;;;7.85;;
59476;SDS011;73078;49.762;6.594;2024-01-27T07:29:03;14.80;;;8.10;;
59476;SDS011;73078;49.762;6.594;2024-01-27T07:31:29;15.40;;;7.22;;
59476;SDS011;73078;49.762;6.594;2024-01-27T07:33:56;18.15;;;6.80;;
59476;SDS011;73078;49.762;6.594;2024-01-27T07:36:22;11.23;;;6.30;;
59476;SDS011;73078;49.762;6.594;2024-01-27T07:38:48;6.95;;;4.80;;
59476;SDS011;73078;49.762;6.594;2024-01-27T07:41:14;8.13;;;5.15;;
59476;SDS011;73078;49.762;6.594;2024-01-27T07:43:40;12.85;;;5.00;;
59476;SDS011;73078;49.762;6.594;2024-01-27T07:46:06;9.82;;;4.65;;
59476;SDS011;73078;49.762;6.594;2024-01-27T07:48:33;10.98;;;4.50;;
59476;SDS011;73078;49.762;6.594;2024-01-27T07:50:59;10.18;;;4.78;;
59476;SDS011;73078;49.762;6.594;2024-01-27T07:53:25;10.90;;;4.80;;
59476;SDS011;73078;49.762;6.594;2024-01-27T07:55:51;8.07;;;4.65;;
59476;SDS011;73078;49.762;6.594;2024-01-27T07:58:18;12.60;;;4.80;;
59476;SDS011;73078;49.762;6.594;2024-01-27T08:00:44;8.15;;;5.03;;
59476;SDS011;73078;49.762;6.594;2024-01-27T08:03:10;11.70;;;5.55;;
59476;SDS011;73078;49.762;6.594;2024-01-27T08:05:36;11.60;;;5.45;;
59476;SDS011;73078;49.762;6.594;2024-01-27T08:08:02;12.40;;;5.45;;
59476;SDS011;73078;49.762;6.594;2024-01-27T08:10:29;9.57;;;4.80;;
59476;SDS011;73078;49.762;6.594;2024-01-27T08:12:54;9.60;;;5.32;;
59476;SDS011;73078;49.762;6.594;2024-01-27T08:15:21;11.02;;;5.55;;
59476;SDS011;73078;49.762;6.594;2024-01-27T08:17:47;16.73;;;5.82;;
59476;SDS011;73078;49.762;6.594;2024-01-27T08:20:13;13.50;;;5.72;;
59476;SDS011;73078;49.762;6.594;2024-01-27T08:22:39;17.30;;;5.85;;
59476;SDS011;73078;49.762;6.594;2024-01-27T08:25:05;13.32;;;6.68;;
59476;SDS011;73078;49.762;6.594;2024-01-27T08:27:31;14.25;;;6.30;;
59476;SDS011;73078;49.762;6.594;2024-01-27T08:29:57;13.10;;;6.72;;
59476;SDS011;73078;49.762;6.594;2024-01-27T08:32:23;16.55;;;6.60;;
59476;SDS011;73078;49.762;6.594;2024-01-27T08:34:49;10.00;;;6.20;;
59476;SDS011;73078;49.762;6.594;2024-01-27T08:37:17;14.50;;;6.70;;
59476;SDS011;73078;49.762;6.594;2024-01-27T08:39:44;11.52;;;6.13;;
59476;SDS011;73078;49.762;6.594;2024-01-27T08:42:10;13.40;;;6.50;;
59476;SDS011;73078;49.762;6.594;2024-01-27T08:44:36;11.57;;;6.75;;
59476;SDS011;73078;49.762;6.594;2024-01-27T08:47:02;13.90;;;8.95;;
59476;SDS011;73078;49.762;6.594;2024-01-27T08:49:28;15.32;;;8.40;;
59476;SDS011;73078;49.762;6.594;2024-01-27T08:51:54;17.63;;;7.13;;
59476;SDS011;73078;49.762;6.594;2024-01-27T08:54:20;12.65;;;8.00;;
59476;SDS011;73078;49.762;6.594;2024-01-27T08:56:46;13.20;;;7.65;;
59476;SDS011;73078;49.762;6.594;2024-01-27T08:59:12;12.95;;;7.25;;
59476;SDS011;73078;49.762;6.594;2024-01-27T09:01:38;14.45;;;8.18;;
59476;SDS011;73078;49.762;6.594;2024-01-27T09:04:04;16.02;;;6.80;;
59476;SDS011;73078;49.762;6.594;2024-01-27T09:06:30;11.35;;;6.50;;
59476;SDS011;73078;49.762;6.594;2024-01-27T09:08:56;13.38;;;6.90;;
59476;SDS011;73078;49.762;6.594;2024-01-27T09:11:22;9.30;;;6.55;;
59476;SDS011;73078;49.762;6.594;2024-01-27T09:13:48;11.05;;;6.35;;
59476;SDS011;73078;49.762;6.594;2024-01-27T09:16:16;11.82;;;6.20;;
59476;SDS011;73078;49.762;6.594;2024-01-27T09:18:42;15.45;;;6.47;;
59476;SDS011;73078;49.762;6.594;2024-01-27T09:21:08;9.57;;;6.00;;
59476;SDS011;73078;49.762;6.594;2024-01-27T09:23:35;8.35;;;5.85;;
59476;SDS011;73078;49.762;6.594;2024-01-27T09:26:01;10.50;;;6.32;;
59476;SDS011;73078;49.762;6.594;2024-01-27T09:28:27;11.18;;;6.88;;
59476;SDS011;73078;49.762;6.594;2024-01-27T09:30:52;10.45;;;6.70;;
59476;SDS011;73078;49.762;6.594;2024-01-27T09:33:19;10.77;;;7.63;;
59476;SDS011;73078;49.762;6.594;2024-01-27T09:35:47;11.40;;;7.40;;
59476;SDS011;73078;49.762;6.594;2024-01-27T09:38:13;9.35;;;6.65;;
59476;SDS011;73078;49.762;6.594;2024-01-27T09:40:40;11.13;;;6.60;;
59476;SDS011;73078;49.762;6.594;2024-01-27T09:43:06;9.23;;;5.90;;
59476;SDS011;73078;49.762;6.594;2024-01-27T09:45:32;8.35;;;4.90;;
59476;SDS011;73078;49.762;6.594;2024-01-27T09:47:58;12.52;;;5.45;;
59476;SDS011;73078;49.762;6.594;2024-01-27T09:50:25;9.00;;;4.97;;
59476;SDS011;73078;49.762;6.594;2024-01-27T09:52:51;6.90;;;5.05;;
59476;SDS011;73078;49.762;6.594;2024-01-27T09:55:17;8.07;;;5.20;;
59476;SDS011;73078;49.762;6.594;2024-01-27T09:57:43;8.65;;;5.35;;
59476;SDS011;73078;49.762;6.594;2024-01-27T10:00:11;8.45;;;5.05;;
59476;SDS011;73078;49.762;6.594;2024-01-27T10:02:40;7.55;;;4.80;;
59476;SDS011;73078;49.762;6.594;2024-01-27T10:05:07;7.93;;;4.82;;
59476;SDS011;73078;49.762;6.594;2024-01-27T10:07:34;9.35;;;4.95;;
59476;SDS011;73078;49.762;6.594;2024-01-27T10:10:00;10.68;;;5.40;;
59476;SDS011;73078;49.762;6.594;2024-01-27T10:12:26;9.02;;;4.70;;
59476;SDS011;73078;49.762;6.594;2024-01-27T10:14:54;8.77;;;4.50;;
59476;SDS011;73078;49.762;6.594;2024-01-27T10:17:20;10.25;;;4.75;;
59476;SDS011;73078;49.762;6.594;2024-01-27T10:20:03;9.23;;;4.93;;
59476;SDS011;73078;49.762;6.594;2024-01-27T10:22:36;8.48;;;4.47;;
59476;SDS011;73078;49.762;6.594;2024-01-27T10:25:03;7.68;;;4.57;;
59476;SDS011;73078;49.762;6.594;2024-01-27T10:27:29;7.55;;;4.50;;
59476;SDS011;73078;49.762;6.594;2024-01-27T10:29:55;8.05;;;4.72;;
59476;SDS011;73078;49.762;6.594;2024-01-27T10:32:21;7.95;;;4.68;;
59476;SDS011;73078;49.762;6.594;2024-01-27T10:35:01;10.52;;;5.05;;
59476;SDS011;73078;49.762;6.594;2024-01-27T10:37:27;7.45;;;4.88;;
59476;SDS011;73078;49.762;6.594;2024-01-27T10:39:59;10.02;;;4.93;;
59476;SDS011;73078;49.762;6.594;2024-01-27T10:42:26;7.50;;;4.47;;
59476;SDS011;73078;49.762;6.594;2024-01-27T10:44:52;9.90;;;4.78;;
59476;SDS011;73078;49.762;6.594;2024-01-27T10:47:19;5.95;;;4.75;;
59476;SDS011;73078;49.762;6.594;2024-01-27T10:49:45;7.00;;;4.95;;
59476;SDS011;73078;49.762;6.594;2024-01-27T10:52:13;6.97;;;4.00;;
59476;SDS011;73078;49.762;6.594;2024-01-27T10:54:40;10.02;;;5.18;;
59476;SDS011;73078;49.762;6.594;2024-01-27T10:57:07;8.35;;;4.57;;
59476;SDS011;73078;49.762;6.594;2024-01-27T10:59:33;6.22;;;4.57;;
59476;SDS011;73078;49.762;6.594;2024-01-27T11:02:00;8.45;;;5.38;;
59476;SDS011;73078;49.762;6.594;2024-01-27T11:04:28;7.15;;;4.72;;
59476;SDS011;73078;49.762;6.594;2024-01-27T11:06:54;8.10;;;5.00;;
59476;SDS011;73078;49.762;6.594;2024-01-27T11:09:21;9.45;;;5.60;;
59476;SDS011;73078;49.762;6.594;2024-01-27T11:11:47;8.02;;;5.20;;
59476;SDS011;73078;49.762;6.594;2024-01-27T11:14:13;7.65;;;5.30;;
59476;SDS011;73078;49.762;6.594;2024-01-27T11:16:40;8.75;;;5.38;;
59476;SDS011;73078;49.762;6.594;2024-01-27T11:19:11;8.48;;;5.10;;
59476;SDS011;73078;49.762;6.594;2024-01-27T11:21:37;8.13;;;5.40;;
59476;SDS011;73078;49.762;6.594;2024-01-27T11:24:13;7.30;;;5.38;;
59476;SDS011;73078;49.762;6.594;2024-01-27T11:26:39;8.10;;;4.10;;
59476;SDS011;73078;49.762;6.594;2024-01-27T11:29:06;6.80;;;4.20;;
59476;SDS011;73078;49.762;6.594;2024-01-27T11:31:43;9.02;;;4.07;;
59476;SDS011;73078;49.762;6.594;2024-01-27T11:34:12;11.23;;;7.93;;
59476;SDS011;73078;49.762;6.594;2024-01-27T11:36:41;7.35;;;5.00;;
59476;SDS011;73078;49.762;6.594;2024-01-27T11:39:22;6.57;;;4.90;;
59476;SDS011;73078;49.762;6.594;2024-01-27T11:41:48;8.43;;;4.93;;
59476;SDS011;73078;49.762;6.594;2024-01-27T11:44:14;5.90;;;4.55;;
59476;SDS011;73078;49.762;6.594;2024-01-27T11:46:41;8.65;;;4.57;;
59476;SDS011;73078;49.762;6.594;2024-01-27T11:49:07;8.82;;;4.28;;
59476;SDS011;73078;49.762;6.594;2024-01-27T11:51:36;8.30;;;4.40;;
59476;SDS011;73078;49.762;6.594;2024-01-27T11:54:02;8.77;;;4.53;;
59476;SDS011;73078;49.762;6.594;2024-01-27T11:56:28;10.82;;;3.90;;
59476;SDS011;73078;49.762;6.594;2024-01-27T11:58:54;6.80;;;3.22;;
59476;SDS011;73078;49.762;6.594;2024-01-27T12:01:20;6.65;;;3.58;;
59476;SDS011;73078;49.762;6.594;2024-01-27T12:03:46;7.82;;;3.00;;
59476;SDS011;73078;49.762;6.594;2024-01-27T12:06:13;9.50;;;4.07;;
59476;SDS011;73078;49.762;6.594;2024-01-27T12:08:40;8.00;;;2.95;;
59476;SDS011;73078;49.762;6.594;2024-01-27T12:11:13;9.57;;;3.10;;
59476;SDS011;73078;49.762;6.594;2024-01-27T12:13:39;8.48;;;3.00;;
59476;SDS011;73078;49.762;6.594;2024-01-27T12:16:05;5.88;;;2.80;;
59476;SDS011;73078;49.762;6.594;2024-01-27T12:18:32;7.72;;;2.97;;
59476;SDS011;73078;49.762;6.594;2024-01-27T12:20:58;7.38;;;3.40;;
59476;SDS011;73078;49.762;6.594;2024-01-27T12:23:24;7.38;;;3.42;;
59476;SDS011;73078;49.762;6.594;2024-01-27T12:25:53;9.27;;;3.97;;
59476;SDS011;73078;49.762;6.594;2024-01-27T12:28:19;6.30;;;3.45;;
59476;SDS011;73078;49.762;6.594;2024-01-27T12:30:45;6.97;;;3.50;;
59476;SDS011;73078;49.762;6.594;2024-01-27T12:33:11;12.45;;;3.97;;
59476;SDS011;73078;49.762;6.594;2024-01-27T12:35:38;7.18;;;4.05;;
59476;SDS011;73078;49.762;6.594;2024-01-27T12:38:07;6.85;;;3.50;;
59476;SDS011;73078;49.762;6.594;2024-01-27T12:40:33;7.23;;;3.47;;
59476;SDS011;73078;49.762;6.594;2024-01-27T12:42:58;6.85;;;3.60;;
59476;SDS011;73078;49.762;6.594;2024-01-27T12:45:24;9.40;;;4.38;;
59476;SDS011;73078;49.762;6.594;2024-01-27T12:47:50;9.73;;;6.18;;
59476;SDS011;73078;49.762;6.594;2024-01-27T12:50:16;14.25;;;7.30;;
59476;SDS011;73078;49.762;6.594;2024-01-27T12:52:42;12.63;;;6.15;;
59476;SDS011;73078;49.762;6.594;2024-01-27T12:55:08;9.30;;;5.20;;
59476;SDS011;73078;49.762;6.594;2024-01-27T12:57:34;7.60;;;4.63;;
59476;SDS011;73078;49.762;6.594;2024-01-27T13:00:00;8.52;;;4.78;;
59476;SDS011;73078;49.762;6.594;2024-01-27T13:02:29;11.02;;;6.57;;
59476;SDS011;73078;49.762;6.594;2024-01-27T13:04:55;7.88;;;5.18;;
59476;SDS011;73078;49.762;6.594;2024-01-27T13:07:21;8.25;;;5.10;;
59476;SDS011;73078;49.762;6.594;2024-01-27T13:09:47;21.30;;;10.75;;
59476;SDS011;73078;49.762;6.594;2024-01-27T13:12:13;12.00;;;8.43;;
59476;SDS011;73078;49.762;6.594;2024-01-27T13:14:39;10.13;;;5.20;;
59476;SDS011;73078;49.762;6.594;2024-01-27T13:17:05;9.73;;;5.93;;
59476;SDS011;73078;49.762;6.594;2024-01-27T13:19:31;8.88;;;5.70;;
59476;SDS011;73078;49.762;6.594;2024-01-27T13:21:57;7.00;;;5.00;;
59476;SDS011;73078;49.762;6.594;2024-01-27T13:24:23;6.63;;;4.55;;
59476;SDS011;73078;49.762;6.594;2024-01-27T13:26:50;10.27;;;5.97;;
59476;SDS011;73078;49.762;6.594;2024-01-27T13:29:16;8.55;;;5.22;;
59476;SDS011;73078;49.762;6.594;2024-01-27T13:31:42;14.23;;;5.22;;
59476;SDS011;73078;49.762;6.594;2024-01-27T13:34:08;9.75;;;4.53;;
59476;SDS011;73078;49.762;6.594;2024-01-27T13:36:34;9.70;;;5.47;;
59476;SDS011;73078;49.762;6.594;2024-01-27T13:39:00;8.40;;;4.78;;
59476;SDS011;73078;49.762;6.594;2024-01-27T13:41:26;10.65;;;5.22;;
59476;SDS011;73078;49.762;6.594;2024-01-27T13:43:52;9.88;;;5.95;;
59476;SDS011;73078;49.762;6.594;2024-01-27T13:46:18;12.25;;;6.90;;
59476;SDS011;73078;49.762;6.594;2024-01-27T13:48:44;9.27;;;6.35;;
59476;SDS011;73078;49.762;6.594;2024-01-27T13:51:11;10.43;;;6.60;;
59476;SDS011;73078;49.762;6.594;2024-01-27T13:53:37;14.00;;;6.30;;
59476;SDS011;73078;49.762;6.594;2024-01-27T13:56:03;11.63;;;5.63;;
59476;SDS011;73078;49.762;6.594;2024-01-27T13:58:29;9.95;;;5.03;;
59476;SDS011;73078;49.762;6.594;2024-01-27T14:00:55;11.90;;;4.70;;
59476;SDS011;73078;49.762;6.594;2024-01-27T14:03:21;8.98;;;5.07;;
59476;SDS011;73078;49.762;6.594;2024-01-27T14:05:48;9.25;;;5.03;;
59476;SDS011;73078;49.762;6.594;2024-01-27T14:08:14;6.93;;;4.57;;
59476;SDS011;73078;49.762;6.594;2024-01-27T14:10:40;10.50;;;4.57;;
59476;SDS011;73078;49.762;6.594;2024-01-27T14:13:08;10.40;;;4.45;;
59476;SDS011;73078;49.762;6.594;2024-01-27T14:15:35;9.52;;;4.50;;
59476;SDS011;73078;49.762;6.594;2024-01-27T14:18:01;9.15;;;4.95;;
59476;SDS011;73078;49.762;6.594;2024-01-27T14:20:29;11.75;;;4.43;;
59476;SDS011;73078;49.762;6.594;2024-01-27T14:22:55;10.15;;;5.03;;
59476;SDS011;73078;49.762;6.594;2024-01-27T14:25:22;8.50;;;4.82;;
59476;SDS011;73078;49.762;6.594;2024-01-27T14:27:48;10.57;;;4.30;;
59476;SDS011;73078;49.762;6.594;2024-01-27T14:30:14;11.52;;;4.70;;
59476;SDS011;73078;49.762;6.594;2024-01-27T14:32:40;10.50;;;4.43;;
59476;SDS011;73078;49.762;6.594;2024-01-27T14:35:07;11.73;;;5.40;;
59476;SDS011;73078;49.762;6.594;2024-01-27T14:37:33;8.30;;;5.32;;
59476;SDS011;73078;49.762;6.594;2024-01-27T14:39:59;10.15;;;4.47;;